sensor_id;sensor_type;location;lat;lon;timestamp;pressure;altitude;pressure_sealevel;temperature;humidity
69911;BME280;63555;49.920;17.868;2023-06-26T00:03:11;98751.72;;;12.10;78.26
69911;BME280;63555;49.920;17.868;2023-06-26T00:08:15;98761.25;;;12.01;78.85
69911;BME280;63555;49.920;17.868;2023-06-26T00:13:15;98753.94;;;11.94;78.74
69911;BME280;63555;49.920;17.868;2023-06-26T00:18:15;98748.69;;;11.83;79.24
69911;BME280;63555;49.920;17.868;2023-06-26T00:23:16;98758.66;;;11.79;79.28
69911;BME280;63555;49.920;17.868;2023-06-26T00:28:17;98764.28;;;11.74;79.28
69911;BME280;63555;49.920;17.868;2023-06-26T00:33:17;98762.00;;;11.70;79.28
69911;BME280;63555;49.920;17.868;2023-06-26T00:38:18;98757.81;;;11.67;79.23
69911;BME280;63555;49.920;17.868;2023-06-26T00:43:18;98749.31;;;11.64;79.32
69911;BME280;63555;49.920;17.868;2023-06-26T00:48:19;98750.38;;;11.61;79.33
69911;BME280;63555;49.920;17.868;2023-06-26T00:53:19;98756.28;;;11.54;79.54
69911;BME280;63555;49.920;17.868;2023-06-26T00:58:23;98754.13;;;11.47;79.62
69911;BME280;63555;49.920;17.868;2023-06-26T01:03:25;98746.69;;;11.41;79.33
69911;BME280;63555;49.920;17.868;2023-06-26T01:08:26;98750.06;;;11.32;79.89
69911;BME280;63555;49.920;17.868;2023-06-26T01:13:28;98746.56;;;11.21;80.36
69911;BME280;63555;49.920;17.868;2023-06-26T01:18:30;98740.31;;;11.22;80.32
69911;BME280;63555;49.920;17.868;2023-06-26T01:23:57;98741.16;;;11.22;80.12
69911;BME280;63555;49.920;17.868;2023-06-26T01:29:01;98734.31;;;11.20;79.97
69911;BME280;63555;49.920;17.868;2023-06-26T01:34:02;98740.91;;;11.14;80.32
69911;BME280;63555;49.920;17.868;2023-06-26T01:39:03;98727.13;;;11.10;80.33
69911;BME280;63555;49.920;17.868;2023-06-26T01:49:34;98721.97;;;10.98;80.50
69911;BME280;63555;49.920;17.868;2023-06-26T01:54:42;98723.41;;;10.91;80.71
69911;BME280;63555;49.920;17.868;2023-06-26T01:59:47;98730.84;;;10.85;80.54
69911;BME280;63555;49.920;17.868;2023-06-26T02:04:47;98730.34;;;10.80;80.65
69911;BME280;63555;49.920;17.868;2023-06-26T02:09:48;98725.31;;;10.77;80.50
69911;BME280;63555;49.920;17.868;2023-06-26T02:14:48;98736.09;;;10.74;80.99
69911;BME280;63555;49.920;17.868;2023-06-26T02:19:50;98723.03;;;10.73;81.00
69911;BME280;63555;49.920;17.868;2023-06-26T02:24:50;98729.03;;;10.75;80.78
69911;BME280;63555;49.920;17.868;2023-06-26T02:29:50;98735.25;;;10.74;80.63
69911;BME280;63555;49.920;17.868;2023-06-26T02:34:51;98730.09;;;10.72;80.79
69911;BME280;63555;49.920;17.868;2023-06-26T02:39:51;98732.38;;;10.66;81.07
69911;BME280;63555;49.920;17.868;2023-06-26T02:44:52;98729.00;;;10.64;81.07
69911;BME280;63555;49.920;17.868;2023-06-26T02:49:52;98732.59;;;10.63;81.32
69911;BME280;63555;49.920;17.868;2023-06-26T02:54:53;98734.28;;;10.64;81.29
69911;BME280;63555;49.920;17.868;2023-06-26T02:59:53;98741.22;;;10.65;81.14
69911;BME280;63555;49.920;17.868;2023-06-26T03:04:53;98731.75;;;10.62;81.31
69911;BME280;63555;49.920;17.868;2023-06-26T03:09:54;98732.00;;;10.59;81.53
69911;BME280;63555;49.920;17.868;2023-06-26T03:14:54;98733.69;;;10.60;81.88
69911;BME280;63555;49.920;17.868;2023-06-26T03:19:54;98732.38;;;10.66;81.89
69911;BME280;63555;49.920;17.868;2023-06-26T03:24:55;98728.41;;;10.71;82.00
69911;BME280;63555;49.920;17.868;2023-06-26T03:29:55;98732.16;;;10.80;81.88
69911;BME280;63555;49.920;17.868;2023-06-26T03:34:56;98738.28;;;10.92;81.72
69911;BME280;63555;49.920;17.868;2023-06-26T03:39:56;98735.75;;;11.01;81.44
69911;BME280;63555;49.920;17.868;2023-06-26T03:44:57;98733.25;;;11.11;81.62
69911;BME280;63555;49.920;17.868;2023-06-26T03:49:57;98728.81;;;11.23;81.54
69911;BME280;63555;49.920;17.868;2023-06-26T03:54:58;98735.53;;;11.38;81.98
69911;BME280;63555;49.920;17.868;2023-06-26T03:59:58;98738.38;;;11.57;81.79
69911;BME280;63555;49.920;17.868;2023-06-26T04:04:59;98737.53;;;11.79;81.56
69911;BME280;63555;49.920;17.868;2023-06-26T04:10:00;98732.44;;;11.98;81.33
69911;BME280;63555;49.920;17.868;2023-06-26T04:15:01;98732.63;;;12.18;81.56
69911;BME280;63555;49.920;17.868;2023-06-26T04:20:03;98727.22;;;12.40;81.27
69911;BME280;63555;49.920;17.868;2023-06-26T04:25:06;98728.06;;;12.61;81.13
69911;BME280;63555;49.920;17.868;2023-06-26T04:30:07;98725.97;;;12.86;81.38
69911;BME280;63555;49.920;17.868;2023-06-26T04:35:08;98720.28;;;13.11;81.23
69911;BME280;63555;49.920;17.868;2023-06-26T04:40:10;98721.78;;;13.34;81.05
69911;BME280;63555;49.920;17.868;2023-06-26T04:45:11;98728.28;;;13.61;80.92
69911;BME280;63555;49.920;17.868;2023-06-26T04:50:11;98720.66;;;13.87;80.74
69911;BME280;63555;49.920;17.868;2023-06-26T04:55:12;98723.78;;;14.11;80.60
69911;BME280;63555;49.920;17.868;2023-06-26T05:00:13;98726.97;;;14.34;80.70
69911;BME280;63555;49.920;17.868;2023-06-26T05:05:13;98712.47;;;14.57;80.57
69911;BME280;63555;49.920;17.868;2023-06-26T05:10:15;98718.84;;;14.84;80.69
69911;BME280;63555;49.920;17.868;2023-06-26T05:15:15;98717.91;;;15.12;80.60
69911;BME280;63555;49.920;17.868;2023-06-26T05:20:16;98709.56;;;15.35;79.97
69911;BME280;63555;49.920;17.868;2023-06-26T05:25:18;98715.22;;;15.59;79.89
69911;BME280;63555;49.920;17.868;2023-06-26T05:30:19;98723.25;;;15.95;79.29
69911;BME280;63555;49.920;17.868;2023-06-26T05:35:22;98722.13;;;16.33;79.05
69911;BME280;63555;49.920;17.868;2023-06-26T05:40:23;98712.31;;;16.69;78.19
69911;BME280;63555;49.920;17.868;2023-06-26T05:45:24;98713.16;;;16.95;77.82
69911;BME280;63555;49.920;17.868;2023-06-26T05:50:25;98712.81;;;17.24;77.09
69911;BME280;63555;49.920;17.868;2023-06-26T05:55:26;98717.63;;;17.55;76.66
69911;BME280;63555;49.920;17.868;2023-06-26T06:00:27;98718.75;;;17.86;75.06
69911;BME280;63555;49.920;17.868;2023-06-26T06:05:28;98704.13;;;18.14;73.95
69911;BME280;63555;49.920;17.868;2023-06-26T06:10:29;98713.16;;;18.38;72.98
69911;BME280;63555;49.920;17.868;2023-06-26T06:15:29;98710.66;;;18.61;71.92
69911;BME280;63555;49.920;17.868;2023-06-26T06:20:29;98714.34;;;18.84;71.26
69911;BME280;63555;49.920;17.868;2023-06-26T06:25:30;98710.47;;;19.11;69.83
69911;BME280;63555;49.920;17.868;2023-06-26T06:30:30;98708.41;;;19.29;69.87
69911;BME280;63555;49.920;17.868;2023-06-26T06:35:30;98712.31;;;19.50;70.04
69911;BME280;63555;49.920;17.868;2023-06-26T06:40:31;98711.78;;;20.01;70.25
69911;BME280;63555;49.920;17.868;2023-06-26T06:45:31;98708.69;;;22.63;65.38
69911;BME280;63555;49.920;17.868;2023-06-26T06:50:31;98696.69;;;26.45;55.59
69911;BME280;63555;49.920;17.868;2023-06-26T06:55:33;98701.97;;;29.25;48.08
69911;BME280;63555;49.920;17.868;2023-06-26T07:00:33;98710.13;;;31.62;43.08
69911;BME280;63555;49.920;17.868;2023-06-26T07:05:34;98710.38;;;33.70;39.52
69911;BME280;63555;49.920;17.868;2023-06-26T07:10:34;98709.88;;;35.32;35.82
69911;BME280;63555;49.920;17.868;2023-06-26T07:15:34;98707.38;;;36.10;33.80
69911;BME280;63555;49.920;17.868;2023-06-26T07:20:35;98703.25;;;36.96;32.05
69911;BME280;63555;49.920;17.868;2023-06-26T07:25:36;98708.63;;;37.40;30.03
69911;BME280;63555;49.920;17.868;2023-06-26T07:30:36;98704.13;;;38.35;29.00
69911;BME280;63555;49.920;17.868;2023-06-26T07:35:37;98711.66;;;39.32;27.62
69911;BME280;63555;49.920;17.868;2023-06-26T07:40:37;98698.47;;;39.70;26.26
69911;BME280;63555;49.920;17.868;2023-06-26T07:45:38;98705.06;;;40.24;25.25
69911;BME280;63555;49.920;17.868;2023-06-26T07:50:39;98704.31;;;40.68;24.72
69911;BME280;63555;49.920;17.868;2023-06-26T07:55:40;98702.44;;;39.36;23.64
69911;BME280;63555;49.920;17.868;2023-06-26T08:00:40;98698.94;;;37.67;24.75
69911;BME280;63555;49.920;17.868;2023-06-26T08:05:41;98695.81;;;37.97;25.26
69911;BME280;63555;49.920;17.868;2023-06-26T08:10:41;98695.31;;;39.49;24.28
69911;BME280;63555;49.920;17.868;2023-06-26T08:15:41;98695.25;;;40.90;22.26
69911;BME280;63555;49.920;17.868;2023-06-26T08:20:42;98691.84;;;39.71;22.97
69911;BME280;63555;49.920;17.868;2023-06-26T08:25:42;98698.16;;;40.13;22.82
69911;BME280;63555;49.920;17.868;2023-06-26T08:30:44;98688.44;;;41.27;22.23
69911;BME280;63555;49.920;17.868;2023-06-26T08:35:45;98692.66;;;42.38;21.41
69911;BME280;63555;49.920;17.868;2023-06-26T08:40:45;98691.72;;;43.24;20.66
69911;BME280;63555;49.920;17.868;2023-06-26T08:45:45;98684.34;;;42.38;19.42
69911;BME280;63555;49.920;17.868;2023-06-26T08:50:48;98677.34;;;42.67;19.83
69911;BME280;63555;49.920;17.868;2023-06-26T08:55:51;98675.41;;;43.31;18.79
69911;BME280;63555;49.920;17.868;2023-06-26T09:00:53;98667.19;;;44.02;17.63
69911;BME280;63555;49.920;17.868;2023-06-26T09:05:56;98667.28;;;44.35;16.37
69911;BME280;63555;49.920;17.868;2023-06-26T09:10:56;98662.66;;;44.93;16.40
69911;BME280;63555;49.920;17.868;2023-06-26T09:15:56;98666.28;;;43.60;17.69
69911;BME280;63555;49.920;17.868;2023-06-26T09:20:57;98659.31;;;43.83;18.07
69911;BME280;63555;49.920;17.868;2023-06-26T09:25:58;98649.09;;;44.17;17.62
69911;BME280;63555;49.920;17.868;2023-06-26T09:31:07;98651.19;;;44.41;16.96
69911;BME280;63555;49.920;17.868;2023-06-26T09:36:09;98650.09;;;43.92;17.50
69911;BME280;63555;49.920;17.868;2023-06-26T09:41:18;98643.75;;;44.33;17.35
69911;BME280;63555;49.920;17.868;2023-06-26T09:46:25;98635.19;;;44.38;17.27
69911;BME280;63555;49.920;17.868;2023-06-26T09:51:29;98641.34;;;44.64;17.87
69911;BME280;63555;49.920;17.868;2023-06-26T09:56:31;98634.16;;;45.21;17.60
69911;BME280;63555;49.920;17.868;2023-06-26T10:01:33;98631.19;;;45.26;17.55
69911;BME280;63555;49.920;17.868;2023-06-26T10:06:44;98628.03;;;45.52;17.32
69911;BME280;63555;49.920;17.868;2023-06-26T10:12:06;98625.28;;;43.66;17.18
69911;BME280;63555;49.920;17.868;2023-06-26T10:17:16;98629.13;;;42.97;17.94
69911;BME280;63555;49.920;17.868;2023-06-26T10:22:20;98608.72;;;41.55;18.91
69911;BME280;63555;49.920;17.868;2023-06-26T10:27:24;98608.38;;;41.48;19.07
69911;BME280;63555;49.920;17.868;2023-06-26T10:32:26;98602.25;;;40.58;19.05
69911;BME280;63555;49.920;17.868;2023-06-26T10:37:47;98593.34;;;39.94;20.58
69911;BME280;63555;49.920;17.868;2023-06-26T10:42:47;98588.75;;;40.34;20.49
69911;BME280;63555;49.920;17.868;2023-06-26T10:47:52;98582.72;;;40.54;20.35
69911;BME280;63555;49.920;17.868;2023-06-26T11:03:47;98572.06;;;41.49;19.02
69911;BME280;63555;49.920;17.868;2023-06-26T11:08:51;98564.34;;;39.91;20.85
69911;BME280;63555;49.920;17.868;2023-06-26T11:13:55;98567.59;;;39.57;20.77
69911;BME280;63555;49.920;17.868;2023-06-26T11:18:58;98557.81;;;40.01;20.64
69911;BME280;63555;49.920;17.868;2023-06-26T11:23:59;98559.13;;;40.03;21.18
69911;BME280;63555;49.920;17.868;2023-06-26T11:29:02;98558.38;;;40.87;20.66
69911;BME280;63555;49.920;17.868;2023-06-26T11:34:04;98553.28;;;41.20;20.93
69911;BME280;63555;49.920;17.868;2023-06-26T11:39:05;98545.31;;;40.79;19.70
69911;BME280;63555;49.920;17.868;2023-06-26T11:44:08;98537.63;;;40.23;19.08
69911;BME280;63555;49.920;17.868;2023-06-26T11:49:10;98540.72;;;39.85;19.97
69911;BME280;63555;49.920;17.868;2023-06-26T11:54:10;98537.34;;;39.52;19.94
69911;BME280;63555;49.920;17.868;2023-06-26T11:59:12;98530.75;;;41.04;18.52
69911;BME280;63555;49.920;17.868;2023-06-26T12:04:16;98528.13;;;40.68;18.77
69911;BME280;63555;49.920;17.868;2023-06-26T12:09:18;98524.00;;;40.26;19.06
69911;BME280;63555;49.920;17.868;2023-06-26T12:14:20;98531.72;;;39.43;20.92
69911;BME280;63555;49.920;17.868;2023-06-26T12:19:25;98523.06;;;39.36;21.56
69911;BME280;63555;49.920;17.868;2023-06-26T12:24:27;98509.44;;;39.40;20.47
69911;BME280;63555;49.920;17.868;2023-06-26T12:29:34;98517.00;;;39.48;20.79
69911;BME280;63555;49.920;17.868;2023-06-26T12:34:37;98514.06;;;38.90;21.13
69911;BME280;63555;49.920;17.868;2023-06-26T12:39:57;98508.03;;;38.87;20.71
69911;BME280;63555;49.920;17.868;2023-06-26T12:44:58;98505.22;;;40.15;19.82
69911;BME280;63555;49.920;17.868;2023-06-26T12:49:58;98502.72;;;38.91;20.22
69911;BME280;63555;49.920;17.868;2023-06-26T12:55:00;98501.75;;;38.08;20.79
69911;BME280;63555;49.920;17.868;2023-06-26T13:00:00;98496.47;;;38.44;20.95
69911;BME280;63555;49.920;17.868;2023-06-26T13:05:01;98499.91;;;39.82;20.67
69911;BME280;63555;49.920;17.868;2023-06-26T13:10:01;98493.97;;;39.03;21.12
69911;BME280;63555;49.920;17.868;2023-06-26T13:15:01;98483.34;;;39.24;21.56
69911;BME280;63555;49.920;17.868;2023-06-26T13:20:03;98477.84;;;39.10;22.62
69911;BME280;63555;49.920;17.868;2023-06-26T13:25:05;98474.72;;;38.56;23.56
69911;BME280;63555;49.920;17.868;2023-06-26T13:30:06;98466.78;;;38.96;22.68
69911;BME280;63555;49.920;17.868;2023-06-26T13:35:06;98456.03;;;38.26;23.05
69911;BME280;63555;49.920;17.868;2023-06-26T13:40:08;98451.66;;;38.06;23.47
69911;BME280;63555;49.920;17.868;2023-06-26T13:45:09;98442.00;;;37.76;22.96
69911;BME280;63555;49.920;17.868;2023-06-26T13:50:09;98442.81;;;37.58;24.20
69911;BME280;63555;49.920;17.868;2023-06-26T13:55:10;98434.19;;;37.27;23.52
69911;BME280;63555;49.920;17.868;2023-06-26T14:00:11;98428.44;;;36.86;24.32
69911;BME280;63555;49.920;17.868;2023-06-26T14:05:12;98417.22;;;36.82;24.54
69911;BME280;63555;49.920;17.868;2023-06-26T14:10:13;98426.88;;;36.56;24.71
69911;BME280;63555;49.920;17.868;2023-06-26T14:15:14;98422.13;;;36.61;25.14
69911;BME280;63555;49.920;17.868;2023-06-26T14:20:14;98413.72;;;36.53;25.12
69911;BME280;63555;49.920;17.868;2023-06-26T14:25:16;98404.78;;;36.13;24.39
69911;BME280;63555;49.920;17.868;2023-06-26T14:30:16;98402.31;;;36.12;24.42
69911;BME280;63555;49.920;17.868;2023-06-26T14:35:17;98398.78;;;36.35;25.10
69911;BME280;63555;49.920;17.868;2023-06-26T14:40:19;98382.75;;;36.18;24.30
69911;BME280;63555;49.920;17.868;2023-06-26T14:45:19;98386.00;;;36.20;23.45
69911;BME280;63555;49.920;17.868;2023-06-26T14:50:20;98377.91;;;36.10;24.26
69911;BME280;63555;49.920;17.868;2023-06-26T14:55:21;98379.06;;;36.04;24.17
69911;BME280;63555;49.920;17.868;2023-06-26T15:00:21;98357.69;;;34.39;24.85
69911;BME280;63555;49.920;17.868;2023-06-26T15:05:22;98355.88;;;33.53;26.08
69911;BME280;63555;49.920;17.868;2023-06-26T15:10:22;98352.06;;;33.34;26.24
69911;BME280;63555;49.920;17.868;2023-06-26T15:15:24;98350.69;;;33.42;26.79
69911;BME280;63555;49.920;17.868;2023-06-26T15:20:25;98342.88;;;32.68;27.27
69911;BME280;63555;49.920;17.868;2023-06-26T15:25:25;98333.56;;;32.58;27.32
69911;BME280;63555;49.920;17.868;2023-06-26T15:30:25;98331.59;;;32.34;27.14
69911;BME280;63555;49.920;17.868;2023-06-26T15:35:26;98331.91;;;31.95;27.51
69911;BME280;63555;49.920;17.868;2023-06-26T15:40:27;98322.06;;;31.94;28.09
69911;BME280;63555;49.920;17.868;2023-06-26T15:45:27;98319.22;;;32.21;27.56
69911;BME280;63555;49.920;17.868;2023-06-26T15:50:27;98302.72;;;32.00;27.65
69911;BME280;63555;49.920;17.868;2023-06-26T15:55:28;98292.16;;;31.67;28.01
69911;BME280;63555;49.920;17.868;2023-06-26T16:00:28;98283.19;;;31.29;29.12
69911;BME280;63555;49.920;17.868;2023-06-26T16:05:28;98277.19;;;31.00;29.62
69911;BME280;63555;49.920;17.868;2023-06-26T16:10:29;98261.22;;;30.55;29.59
69911;BME280;63555;49.920;17.868;2023-06-26T16:15:29;98261.44;;;30.27;30.60
69911;BME280;63555;49.920;17.868;2023-06-26T16:20:30;98263.00;;;29.79;31.90
69911;BME280;63555;49.920;17.868;2023-06-26T16:25:30;98259.88;;;29.48;31.39
69911;BME280;63555;49.920;17.868;2023-06-26T16:30:30;98256.97;;;29.38;31.91
69911;BME280;63555;49.920;17.868;2023-06-26T16:35:31;98261.19;;;29.12;33.38
69911;BME280;63555;49.920;17.868;2023-06-26T16:40:34;98260.91;;;28.80;34.77
69911;BME280;63555;49.920;17.868;2023-06-26T16:45:35;98256.28;;;28.36;35.70
69911;BME280;63555;49.920;17.868;2023-06-26T16:50:35;98248.06;;;27.79;36.80
69911;BME280;63555;49.920;17.868;2023-06-26T16:55:35;98255.94;;;27.45;37.83
69911;BME280;63555;49.920;17.868;2023-06-26T17:00:36;98253.13;;;27.17;38.39
69911;BME280;63555;49.920;17.868;2023-06-26T17:05:38;98256.28;;;27.02;38.84
69911;BME280;63555;49.920;17.868;2023-06-26T17:10:39;98245.13;;;26.80;39.33
69911;BME280;63555;49.920;17.868;2023-06-26T17:15:39;98254.53;;;26.66;39.13
69911;BME280;63555;49.920;17.868;2023-06-26T17:20:39;98242.25;;;26.52;39.29
69911;BME280;63555;49.920;17.868;2023-06-26T17:25:40;98240.22;;;26.36;39.95
69911;BME280;63555;49.920;17.868;2023-06-26T17:30:40;98255.97;;;26.20;40.30
69911;BME280;63555;49.920;17.868;2023-06-26T17:35:42;98256.03;;;26.02;40.79
69911;BME280;63555;49.920;17.868;2023-06-26T17:40:42;98258.09;;;25.82;41.41
69911;BME280;63555;49.920;17.868;2023-06-26T17:45:43;98260.41;;;25.60;41.98
69911;BME280;63555;49.920;17.868;2023-06-26T17:50:43;98260.16;;;25.43;42.40
69911;BME280;63555;49.920;17.868;2023-06-26T17:55:44;98254.97;;;25.23;43.08
69911;BME280;63555;49.920;17.868;2023-06-26T18:00:44;98254.06;;;25.04;43.49
69911;BME280;63555;49.920;17.868;2023-06-26T18:05:45;98252.56;;;24.84;43.54
69911;BME280;63555;49.920;17.868;2023-06-26T18:10:48;98251.50;;;24.60;44.09
69911;BME280;63555;49.920;17.868;2023-06-26T18:15:50;98251.63;;;24.40;44.75
69911;BME280;63555;49.920;17.868;2023-06-26T18:20:51;98243.00;;;24.11;45.67
69911;BME280;63555;49.920;17.868;2023-06-26T18:25:52;98244.16;;;23.84;45.71
69911;BME280;63555;49.920;17.868;2023-06-26T18:30:54;98231.63;;;23.58;46.60
69911;BME280;63555;49.920;17.868;2023-06-26T18:35:55;98236.63;;;23.41;46.96
69911;BME280;63555;49.920;17.868;2023-06-26T18:40:55;98243.88;;;23.28;47.15
69911;BME280;63555;49.920;17.868;2023-06-26T18:45:56;98240.16;;;23.09;47.64
69911;BME280;63555;49.920;17.868;2023-06-26T18:50:56;98237.28;;;22.91;47.90
69911;BME280;63555;49.920;17.868;2023-06-26T18:55:57;98229.81;;;22.79;48.19
69911;BME280;63555;49.920;17.868;2023-06-26T19:00:57;98231.88;;;22.64;48.42
69911;BME280;63555;49.920;17.868;2023-06-26T19:05:59;98237.00;;;22.52;48.63
69911;BME280;63555;49.920;17.868;2023-06-26T19:10:59;98226.66;;;22.49;48.96
69911;BME280;63555;49.920;17.868;2023-06-26T19:16:01;98225.63;;;22.44;49.28
69911;BME280;63555;49.920;17.868;2023-06-26T19:21:04;98226.84;;;22.35;49.95
69911;BME280;63555;49.920;17.868;2023-06-26T19:26:04;98221.06;;;22.31;49.73
69911;BME280;63555;49.920;17.868;2023-06-26T19:31:07;98228.28;;;22.24;49.79
69911;BME280;63555;49.920;17.868;2023-06-26T19:36:11;98217.06;;;22.07;50.29
69911;BME280;63555;49.920;17.868;2023-06-26T19:41:15;98206.25;;;21.87;50.68
69911;BME280;63555;49.920;17.868;2023-06-26T19:46:16;98206.59;;;21.71;50.87
69911;BME280;63555;49.920;17.868;2023-06-26T19:51:18;98197.22;;;21.54;51.36
69911;BME280;63555;49.920;17.868;2023-06-26T19:56:18;98204.13;;;21.35;51.90
69911;BME280;63555;49.920;17.868;2023-06-26T20:01:21;98207.38;;;21.24;52.55
69911;BME280;63555;49.920;17.868;2023-06-26T20:06:26;98212.22;;;21.14;52.24
69911;BME280;63555;49.920;17.868;2023-06-26T20:11:27;98214.63;;;21.02;53.13
69911;BME280;63555;49.920;17.868;2023-06-26T20:16:28;98216.19;;;20.90;53.56
69911;BME280;63555;49.920;17.868;2023-06-26T20:21:29;98213.75;;;20.74;53.87
69911;BME280;63555;49.920;17.868;2023-06-26T20:26:30;98213.91;;;20.65;54.16
69911;BME280;63555;49.920;17.868;2023-06-26T20:31:32;98211.81;;;20.61;54.26
69911;BME280;63555;49.920;17.868;2023-06-26T20:36:33;98207.03;;;20.56;54.38
69911;BME280;63555;49.920;17.868;2023-06-26T20:41:37;98199.13;;;20.48;54.73
69911;BME280;63555;49.920;17.868;2023-06-26T20:46:38;98191.75;;;20.35;54.91
69911;BME280;63555;49.920;17.868;2023-06-26T20:51:41;98191.25;;;20.25;55.40
69911;BME280;63555;49.920;17.868;2023-06-26T20:56:43;98185.00;;;20.18;55.59
69911;BME280;63555;49.920;17.868;2023-06-26T21:01:44;98184.31;;;20.10;56.03
69911;BME280;63555;49.920;17.868;2023-06-26T21:06:45;98170.66;;;20.04;56.33
69911;BME280;63555;49.920;17.868;2023-06-26T21:11:46;98175.13;;;19.97;56.68
69911;BME280;63555;49.920;17.868;2023-06-26T21:16:47;98184.25;;;19.88;56.98
69911;BME280;63555;49.920;17.868;2023-06-26T21:21:48;98181.44;;;19.75;57.90
69911;BME280;63555;49.920;17.868;2023-06-26T21:26:49;98183.97;;;19.62;58.61
69911;BME280;63555;49.920;17.868;2023-06-26T21:31:50;98181.66;;;19.59;58.59
69911;BME280;63555;49.920;17.868;2023-06-26T21:36:57;98170.03;;;19.66;58.04
69911;BME280;63555;49.920;17.868;2023-06-26T21:41:59;98154.31;;;19.78;57.45
69911;BME280;63555;49.920;17.868;2023-06-26T21:47:00;98143.28;;;19.88;57.26
69911;BME280;63555;49.920;17.868;2023-06-26T21:52:02;98137.66;;;19.97;56.65
69911;BME280;63555;49.920;17.868;2023-06-26T21:57:05;98131.91;;;20.00;56.59
69911;BME280;63555;49.920;17.868;2023-06-26T22:02:07;98131.72;;;20.02;56.69
69911;BME280;63555;49.920;17.868;2023-06-26T22:07:07;98125.94;;;19.98;57.56
69911;BME280;63555;49.920;17.868;2023-06-26T22:12:08;98122.97;;;19.93;58.27
69911;BME280;63555;49.920;17.868;2023-06-26T22:17:08;98224.66;;;19.93;58.39
69911;BME280;63555;49.920;17.868;2023-06-26T22:22:10;98251.81;;;19.90;59.71
69911;BME280;63555;49.920;17.868;2023-06-26T22:27:10;98238.91;;;19.79;61.55
69911;BME280;63555;49.920;17.868;2023-06-26T22:32:11;98281.63;;;19.72;62.88
69911;BME280;63555;49.920;17.868;2023-06-26T22:37:12;98278.88;;;19.66;64.29
69911;BME280;63555;49.920;17.868;2023-06-26T22:42:12;98277.13;;;19.58;65.12
69911;BME280;63555;49.920;17.868;2023-06-26T22:47:13;98293.53;;;19.55;65.97
69911;BME280;63555;49.920;17.868;2023-06-26T22:52:15;98335.69;;;19.53;66.21
69911;BME280;63555;49.920;17.868;2023-06-26T22:57:16;98345.38;;;19.54;67.28
69911;BME280;63555;49.920;17.868;2023-06-26T23:02:17;98305.50;;;19.07;72.53
69911;BME280;63555;49.920;17.868;2023-06-26T23:07:18;98311.69;;;18.39;78.44
69911;BME280;63555;49.920;17.868;2023-06-26T23:12:20;98322.63;;;18.13;82.33
69911;BME280;63555;49.920;17.868;2023-06-26T23:17:20;98307.59;;;17.81;84.92
69911;BME280;63555;49.920;17.868;2023-06-26T23:22:21;98313.66;;;17.67;87.25
69911;BME280;63555;49.920;17.868;2023-06-26T23:27:21;98311.34;;;17.56;89.06
69911;BME280;63555;49.920;17.868;2023-06-26T23:32:22;98318.19;;;17.34;91.26
69911;BME280;63555;49.920;17.868;2023-06-26T23:37:23;98359.53;;;17.38;95.04
69911;BME280;63555;49.920;17.868;2023-06-26T23:42:26;98363.50;;;17.50;96.04
69911;BME280;63555;49.920;17.868;2023-06-26T23:47:27;98342.47;;;17.63;96.72
69911;BME280;63555;49.920;17.868;2023-06-26T23:52:27;98336.50;;;17.69;96.97
69911;BME280;63555;49.920;17.868;2023-06-26T23:57:28;98356.34;;;17.67;97.50
